Terminal Aerodrome Forecast
Issued by NWS Los Angeles, CA

Home | Current Version | Previous Version | Text Only | Print | Product List | Glossary On
Versions: 1 2 3 4 5 6 7 8 9 10 11 12 13 14 15 16 17 18 19 20 21 22 23 24 25 26 27
000
FTUS46 KLOX 300258 AAA
TAFSMX
TAF AMD
KSMX 300258Z 3003/3024 31010KT P6SM SKC
     FM300330 31006KT 6SM BR BKN005
     FM300600 VRB03KT 2SM BR OVC003
     FM300800 VRB03KT 1/2SM FG VV001
     FM301500 VRB03KT 2SM BR OVC003
     FM301630 31006KT P6SM SKC
     FM302000 31010KT P6SM SKC=

USA.gov is the U.S. government's official web portal to all federal, state and local government web resources and services.